createdAt,value
2022-09-12T00:00:46.315Z,15.53
2022-09-12T00:04:11.521Z,15.48
2022-09-12T00:07:36.704Z,15.46
2022-09-12T00:11:01.907Z,15.44
2022-09-12T00:14:27.073Z,15.4
2022-09-12T00:17:52.265Z,15.34
2022-09-12T00:21:17.427Z,15.26
2022-09-12T00:24:42.598Z,15.21
2022-09-12T00:28:07.814Z,15.2
2022-09-12T00:31:33.029Z,15.15
2022-09-12T00:34:58.142Z,15.13
2022-09-12T00:38:23.322Z,15.1
2022-09-12T00:41:48.501Z,15.07
2022-09-12T00:45:13.682Z,15.05
2022-09-12T00:48:38.853Z,15.01
2022-09-12T00:52:04.051Z,15.03
2022-09-12T00:55:29.201Z,15.04
2022-09-12T00:58:54.379Z,15.05
2022-09-12T01:02:19.604Z,15.09
2022-09-12T01:05:44.754Z,15.11
2022-09-12T01:09:10.497Z,15.09
2022-09-12T01:12:35.685Z,15.11
2022-09-12T01:16:00.870Z,15.15
2022-09-12T01:19:26.072Z,15.19
2022-09-12T01:22:51.229Z,15.2
2022-09-12T01:26:16.406Z,15.22
2022-09-12T01:29:41.589Z,15.24
2022-09-12T01:33:06.790Z,15.25
2022-09-12T01:36:31.999Z,15.27
2022-09-12T01:39:57.211Z,15.29
2022-09-12T01:43:22.323Z,15.3
2022-09-12T01:46:47.518Z,15.3
2022-09-12T01:50:12.716Z,15.27
2022-09-12T01:53:37.898Z,15.26
2022-09-12T01:57:03.064Z,15.26
2022-09-12T02:00:28.226Z,15.25
2022-09-12T02:03:53.416Z,15.25
2022-09-12T02:07:18.590Z,15.25
2022-09-12T02:10:43.799Z,15.25
2022-09-12T02:14:08.926Z,15.24
2022-09-12T02:17:34.096Z,15.22
2022-09-12T02:20:59.266Z,15.18
2022-09-12T02:24:24.440Z,15.13
2022-09-12T02:27:49.638Z,15.08
2022-09-12T02:31:14.820Z,15.05
2022-09-12T02:34:39.986Z,15
2022-09-12T02:38:05.160Z,14.93
2022-09-12T02:41:30.375Z,14.87
2022-09-12T02:44:55.585Z,14.83
2022-09-12T02:48:20.714Z,14.8
2022-09-12T02:51:45.891Z,14.77
2022-09-12T02:55:11.063Z,14.72
2022-09-12T02:58:36.236Z,14.69
2022-09-12T03:02:01.483Z,14.65
2022-09-12T03:05:26.591Z,14.61
2022-09-12T03:08:51.773Z,14.6
2022-09-12T03:12:16.960Z,14.58
2022-09-12T03:15:42.131Z,14.55
2022-09-12T03:19:07.324Z,14.53
2022-09-12T03:22:32.467Z,14.49
2022-09-12T03:25:57.666Z,14.46
2022-09-12T03:29:22.857Z,14.43
2022-09-12T03:32:48.050Z,14.36
2022-09-12T03:36:13.260Z,14.3
2022-09-12T03:39:38.467Z,14.27
2022-09-12T03:43:03.582Z,14.25
2022-09-12T03:46:28.777Z,14.21
2022-09-12T03:49:53.991Z,14.16
2022-09-12T03:53:19.174Z,14.11
2022-09-12T03:56:44.333Z,14.04
2022-09-12T04:00:09.505Z,14.03
2022-09-12T04:03:34.708Z,14
2022-09-12T04:06:59.881Z,13.97
2022-09-12T04:10:25.101Z,13.93
2022-09-12T04:13:50.264Z,13.87
2022-09-12T04:17:15.429Z,13.85
2022-09-12T04:20:40.605Z,13.83
2022-09-12T04:24:05.771Z,13.81
2022-09-12T04:27:30.958Z,13.82
2022-09-12T04:30:56.157Z,13.78
2022-09-12T04:34:21.282Z,13.75
2022-09-12T04:37:46.455Z,13.73
2022-09-12T04:41:11.663Z,13.69
2022-09-12T04:44:36.871Z,13.69
2022-09-12T04:48:02.019Z,13.73
2022-09-12T04:51:27.213Z,13.77
2022-09-12T04:54:52.462Z,13.77
2022-09-12T04:58:17.664Z,13.74
2022-09-12T05:01:42.851Z,13.73
2022-09-12T05:05:08.043Z,13.76
2022-09-12T05:08:33.254Z,13.69
2022-09-12T05:12:05.922Z,13.72
2022-09-12T05:15:23.695Z,13.76
2022-09-12T05:18:48.917Z,13.8
2022-09-12T05:22:14.054Z,13.79
2022-09-12T05:25:39.305Z,13.81
2022-09-12T05:29:04.496Z,13.78
2022-09-12T05:32:29.676Z,13.77
2022-09-12T05:35:54.852Z,13.82
2022-09-12T05:39:19.993Z,13.9
2022-09-12T05:42:45.198Z,13.97
2022-09-12T05:46:10.405Z,14.04
2022-09-12T05:49:35.620Z,14.13
2022-09-12T05:53:00.884Z,14.21
2022-09-12T05:56:26.055Z,14.27
2022-09-12T05:59:51.244Z,14.37
2022-09-12T06:03:16.424Z,14.44
2022-09-12T06:06:41.621Z,14.51
2022-09-12T06:10:06.776Z,14.57
2022-09-12T06:13:31.925Z,14.63
2022-09-12T06:16:57.151Z,14.7
2022-09-12T06:20:22.303Z,14.77
2022-09-12T06:23:47.502Z,14.84
2022-09-12T06:27:12.713Z,14.9
2022-09-12T06:30:37.911Z,14.99
2022-09-12T06:34:03.078Z,15.07
2022-09-12T06:37:28.251Z,15.14
2022-09-12T06:40:53.420Z,15.23
2022-09-12T06:44:18.638Z,15.3
2022-09-12T06:47:43.824Z,15.4
2022-09-12T06:51:09.007Z,15.48
2022-09-12T06:54:34.185Z,15.57
2022-09-12T06:57:59.400Z,15.69
2022-09-12T07:01:24.753Z,15.77
2022-09-12T07:04:49.780Z,15.86
2022-09-12T07:08:14.967Z,15.96
2022-09-12T07:11:40.149Z,16.059999
2022-09-12T07:15:05.372Z,16.139999
2022-09-12T07:18:30.629Z,16.209999
2022-09-12T07:21:58.628Z,16.290001
2022-09-12T07:25:21.002Z,16.35
2022-09-12T07:28:46.203Z,16.41
2022-09-12T07:32:11.376Z,16.450001
2022-09-12T07:35:36.626Z,16.52
2022-09-12T07:39:01.788Z,16.59
2022-09-12T07:42:26.974Z,16.65
2022-09-12T07:45:52.216Z,16.709999
2022-09-12T07:49:17.370Z,16.74
2022-09-12T07:52:42.590Z,16.799999
2022-09-12T07:56:07.739Z,16.809999
2022-09-12T07:59:51.182Z,16.83
2022-09-12T08:02:58.171Z,16.84
2022-09-12T08:06:23.387Z,16.879999
2022-09-12T08:09:48.633Z,16.879999
2022-09-12T08:13:13.793Z,16.9
2022-09-12T08:16:39.002Z,16.940001
2022-09-12T08:20:04.159Z,16.98
2022-09-12T08:23:29.323Z,17.01
2022-09-12T08:26:54.585Z,17.02
2022-09-12T08:30:19.722Z,17.049999
2022-09-12T08:33:45.083Z,17.1
2022-09-12T08:37:10.184Z,17.16
2022-09-12T08:40:35.366Z,17.18
2022-09-12T08:44:00.552Z,17.25
2022-09-12T08:47:25.726Z,17.290001
2022-09-12T08:50:50.959Z,17.360001
2022-09-12T08:54:16.175Z,17.41
2022-09-12T08:57:41.408Z,17.459999
2022-09-12T09:01:06.705Z,17.530001
2022-09-12T09:04:31.850Z,17.58
2022-09-12T09:07:57.034Z,17.639999
2022-09-12T09:11:22.214Z,17.709999
2022-09-12T09:14:47.461Z,17.780001
2022-09-12T09:18:12.688Z,17.860001
2022-09-12T09:21:37.835Z,17.98
2022-09-12T09:25:03.114Z,18.09
2022-09-12T09:28:28.361Z,18.200001
2022-09-12T09:31:53.599Z,18.290001
2022-09-12T09:35:18.872Z,18.379999
2022-09-12T09:38:44.075Z,18.51
2022-09-12T09:42:09.347Z,18.639999
2022-09-12T09:45:34.536Z,18.77
2022-09-12T09:48:59.721Z,18.92
2022-09-12T09:52:25.611Z,19.01
2022-09-12T09:55:50.821Z,19.059999
2022-09-12T09:59:16.086Z,19.120001
2022-09-12T10:02:41.377Z,19.16
2022-09-12T10:06:06.567Z,19.17
2022-09-12T10:09:31.848Z,19.190001
2022-09-12T10:12:57.029Z,19.24
2022-09-12T10:16:22.334Z,19.299999
2022-09-12T10:19:59.855Z,19.33
2022-09-12T10:23:12.752Z,19.360001
2022-09-12T10:26:37.971Z,19.49
2022-09-12T10:30:03.212Z,19.610001
2022-09-12T10:33:28.396Z,19.790001
2022-09-12T10:36:53.638Z,19.93
2022-09-12T10:40:18.861Z,20.030001
2022-09-12T10:43:44.017Z,20.030001
2022-09-12T10:47:09.200Z,20.01
2022-09-12T10:50:34.386Z,20.110001
2022-09-12T10:53:59.550Z,20.129999
2022-09-12T10:57:24.733Z,20.07
2022-09-12T11:00:50.525Z,20
2022-09-12T11:04:15.693Z,19.99
2022-09-12T11:07:40.854Z,19.969999
2022-09-12T11:11:06.055Z,19.940001
2022-09-12T11:14:31.250Z,20.030001
2022-09-12T11:17:56.463Z,20.129999
2022-09-12T11:21:21.644Z,20.17
2022-09-12T11:24:46.807Z,20.15
2022-09-12T11:28:12.064Z,20.110001
2022-09-12T11:31:37.246Z,20.049999
2022-09-12T11:35:02.478Z,20.01
2022-09-12T11:38:27.632Z,19.98
2022-09-12T11:41:52.817Z,19.969999
2022-09-12T11:45:17.993Z,19.969999
2022-09-12T11:48:43.167Z,20.040001
2022-09-12T11:52:08.370Z,20.139999
2022-09-12T11:55:33.521Z,20.26
2022-09-12T11:58:58.712Z,20.41
2022-09-12T12:02:23.949Z,20.469999
2022-09-12T12:05:49.067Z,20.440001
2022-09-12T12:09:14.266Z,20.450001
2022-09-12T12:12:39.405Z,20.440001
2022-09-12T12:16:04.640Z,20.440001
2022-09-12T12:19:29.810Z,20.459999
2022-09-12T12:22:55.028Z,20.459999
2022-09-12T12:26:20.267Z,20.51
2022-09-12T12:29:45.414Z,20.57
2022-09-12T12:33:10.632Z,20.620001
2022-09-12T12:36:35.811Z,20.65
2022-09-12T12:40:01.162Z,20.700001
2022-09-12T12:43:26.195Z,20.75
2022-09-12T12:46:51.354Z,20.790001
2022-09-12T12:50:16.523Z,20.860001
2022-09-12T12:53:41.746Z,20.93
2022-09-12T12:57:06.867Z,21
2022-09-12T13:00:32.187Z,21.059999
2022-09-12T13:03:57.374Z,21.129999
2022-09-12T13:07:22.554Z,21.16
2022-09-12T13:10:48.451Z,21.190001
2022-09-12T13:14:12.932Z,21.200001
2022-09-12T13:17:38.142Z,21.190001
2022-09-12T13:21:03.296Z,21.17
2022-09-12T13:24:28.467Z,21.190001
2022-09-12T13:27:53.642Z,21.15
2022-09-12T13:31:19.007Z,21.08
2022-09-12T13:34:44.043Z,21.09
2022-09-12T13:38:09.353Z,21.07
2022-09-12T13:41:34.537Z,21.049999
2022-09-12T13:44:59.705Z,21.040001
2022-09-12T13:48:24.874Z,21.049999
2022-09-12T13:51:50.079Z,21.09
2022-09-12T13:55:15.222Z,21.15
2022-09-12T13:58:40.421Z,21.200001
2022-09-12T14:02:05.624Z,21.26
2022-09-12T14:05:30.808Z,21.32
2022-09-12T14:08:56.187Z,21.35
2022-09-12T14:12:21.304Z,21.35
2022-09-12T14:15:46.562Z,21.360001
2022-09-12T14:19:11.670Z,21.360001
2022-09-12T14:22:36.834Z,21.370001
2022-09-12T14:26:02.043Z,21.35
2022-09-12T14:29:27.191Z,21.34
2022-09-12T15:03:18.032Z,18.82
2022-09-12T15:06:43.189Z,19.76
2022-09-12T15:10:08.360Z,19.969999
2022-09-12T15:13:33.539Z,20.16
2022-09-12T15:16:58.712Z,20.32
2022-09-12T15:20:24.519Z,20.440001
2022-09-12T15:23:49.924Z,20.549999
2022-09-12T15:27:15.124Z,20.620001
2022-09-12T15:30:40.998Z,20.690001
2022-09-12T15:34:06.208Z,20.709999
2022-09-12T15:37:31.529Z,20.719999
2022-09-12T15:40:56.660Z,20.709999
2022-09-12T15:44:21.871Z,20.719999
2022-09-12T15:47:47.109Z,20.73
2022-09-12T15:51:15.177Z,20.77
2022-09-12T15:54:37.590Z,20.790001
2022-09-12T15:58:06.961Z,20.82
2022-09-12T16:01:28.091Z,20.84
2022-09-12T16:04:53.212Z,20.9
2022-09-12T16:08:18.397Z,20.93
2022-09-12T16:11:43.709Z,20.99
2022-09-12T16:15:08.809Z,21.02
2022-09-12T16:18:34.005Z,21.01
2022-09-12T16:21:59.257Z,20.99
2022-09-12T16:25:24.421Z,20.959999
2022-09-12T16:28:49.665Z,20.940001
2022-09-12T16:32:14.855Z,20.92
2022-09-12T16:35:40.044Z,20.860001
2022-09-12T16:39:05.269Z,20.83
2022-09-12T16:42:30.483Z,20.780001
2022-09-12T16:45:55.716Z,20.719999
2022-09-12T16:49:20.890Z,20.65
2022-09-12T16:52:46.153Z,20.57
2022-09-12T16:56:11.384Z,20.5
2022-09-12T16:59:36.563Z,20.41
2022-09-12T17:03:01.829Z,20.280001
2022-09-12T17:06:26.961Z,20.139999
2022-09-12T17:09:52.420Z,19.940001
2022-09-12T17:13:17.590Z,19.809999
2022-09-12T17:16:42.845Z,19.67
2022-09-12T17:20:08.103Z,19.559999
2022-09-12T17:23:33.317Z,19.450001
2022-09-12T17:26:58.519Z,19.33
2022-09-12T17:30:23.695Z,19.18
2022-09-12T17:33:49.101Z,19.02
2022-09-12T17:37:14.220Z,18.879999
2022-09-12T17:40:58.383Z,18.719999
2022-09-12T17:44:04.610Z,18.59
2022-09-12T17:47:29.868Z,18.469999
2022-09-12T17:50:55.264Z,18.35
2022-09-12T17:54:20.609Z,18.24
2022-09-12T17:57:45.693Z,18.129999
2022-09-12T18:01:10.839Z,18.040001
2022-09-12T18:04:36.312Z,17.969999
2022-09-12T18:08:04.341Z,17.879999
2022-09-12T18:11:29.593Z,17.809999
2022-09-12T18:14:54.765Z,17.75
2022-09-12T18:18:19.954Z,17.68
2022-09-12T18:21:45.193Z,17.620001
2022-09-12T18:25:10.399Z,17.59
2022-09-12T18:28:35.688Z,17.530001
2022-09-12T18:32:00.893Z,17.49
2022-09-12T18:35:26.063Z,17.440001
2022-09-12T18:38:51.313Z,17.41
2022-09-12T18:42:16.520Z,17.360001
2022-09-12T18:45:41.749Z,17.33
2022-09-12T18:49:06.891Z,17.299999
2022-09-12T18:52:32.074Z,17.26
2022-09-12T18:55:57.270Z,17.219999
2022-09-12T18:59:22.480Z,17.200001
2022-09-12T19:02:47.703Z,17.18
2022-09-12T19:06:12.853Z,17.16
2022-09-12T19:09:38.070Z,17.139999
2022-09-12T19:13:03.278Z,17.120001
2022-09-12T19:16:28.493Z,17.09
2022-09-12T19:19:53.831Z,17.07
2022-09-12T19:23:18.904Z,17.059999
2022-09-12T19:26:44.104Z,17.049999
2022-09-12T19:30:09.295Z,17.040001
2022-09-12T19:33:34.464Z,17.02
2022-09-12T19:36:59.724Z,16.99
2022-09-12T19:40:24.882Z,17.02
2022-09-12T19:43:50.094Z,17
2022-09-12T19:47:15.286Z,16.969999
2022-09-12T19:50:40.611Z,16.959999
2022-09-12T19:54:05.908Z,16.950001
2022-09-12T19:57:31.107Z,16.93
2022-09-12T20:00:56.362Z,16.93
2022-09-12T20:04:21.605Z,16.91
2022-09-12T20:07:46.856Z,16.889999
2022-09-12T20:11:12.191Z,16.860001
2022-09-12T20:14:37.305Z,16.83
2022-09-12T20:18:02.539Z,16.83
2022-09-12T20:21:27.779Z,16.83
2022-09-12T20:24:53.032Z,16.83
2022-09-12T20:28:18.370Z,16.85
2022-09-12T20:31:43.560Z,16.870001
2022-09-12T20:35:08.723Z,16.870001
2022-09-12T20:38:33.965Z,16.85
2022-09-12T20:41:59.212Z,16.84
2022-09-12T20:45:24.567Z,16.84
2022-09-12T20:48:49.730Z,16.83
2022-09-12T20:52:14.977Z,16.83
2022-09-12T20:55:40.218Z,16.809999
2022-09-12T20:59:05.458Z,16.82
2022-09-12T21:02:30.797Z,16.82
2022-09-12T21:05:55.959Z,16.809999
2022-09-12T21:09:21.196Z,16.82
2022-09-12T21:12:46.411Z,16.809999
2022-09-12T21:16:11.674Z,16.809999
2022-09-12T21:19:36.921Z,16.799999
2022-09-12T21:23:02.123Z,16.780001
2022-09-12T21:26:27.375Z,16.76
2022-09-12T21:29:52.603Z,16.73
2022-09-12T21:33:17.841Z,16.68
2022-09-12T21:36:43.105Z,16.65
2022-09-12T21:40:08.398Z,16.620001
2022-09-12T21:43:33.539Z,16.6
2022-09-12T21:46:58.771Z,16.57
2022-09-12T21:50:24.005Z,16.549999
2022-09-12T21:53:49.342Z,16.530001
2022-09-12T21:57:14.452Z,16.530001
2022-09-12T22:00:39.726Z,16.52
2022-09-12T22:04:04.923Z,16.5
2022-09-12T22:07:30.153Z,16.5
2022-09-12T22:10:55.424Z,16.5
2022-09-12T22:14:20.602Z,16.5
2022-09-12T22:17:45.813Z,16.49
2022-09-12T22:21:11.061Z,16.469999
2022-09-12T22:24:36.286Z,16.459999
2022-09-12T22:28:01.549Z,16.469999
2022-09-12T22:31:26.812Z,16.48
2022-09-12T22:34:51.930Z,16.49
2022-09-12T22:38:17.173Z,16.540001
2022-09-12T22:41:42.373Z,16.620001
2022-09-12T22:45:07.640Z,16.68
2022-09-12T22:48:32.850Z,16.76
2022-09-12T22:51:58.061Z,16.799999
2022-09-12T22:55:23.287Z,16.85
2022-09-12T22:58:48.487Z,16.85
2022-09-12T23:02:13.736Z,16.860001
2022-09-12T23:05:38.946Z,16.85
2022-09-12T23:09:04.145Z,16.85
2022-09-12T23:12:29.353Z,16.879999
2022-09-12T23:15:54.622Z,16.889999
2022-09-12T23:19:19.827Z,16.9
2022-09-12T23:22:45.042Z,16.92
2022-09-12T23:26:10.242Z,16.92
2022-09-12T23:29:35.568Z,16.91
2022-09-12T23:33:00.746Z,16.9
2022-09-12T23:36:25.990Z,16.9
2022-09-12T23:39:51.199Z,16.940001
2022-09-12T23:43:16.330Z,16.950001
2022-09-12T23:46:41.546Z,16.959999
2022-09-12T23:50:06.756Z,16.950001
2022-09-12T23:53:31.980Z,16.93
2022-09-12T23:56:57.196Z,16.889999
